Time;durP1;ratioP1;P1;durP2;ratioP2;P2;SDS_P1;SDS_P2;PMS_P1;PMS_P2;Temp;Humidity;BMP_temperature;BMP_pressure;BME280_temperature;BME280_humidity;BME280_pressure;Samples;Min_cycle;Max_cycle;Signal;HPM_P1;HPM_P2
2022/04/08 00:00:18;;;;;;;3.30;0.80;;;21.30;41.90;;;;;;4996789;28;20104;-61
2022/04/08 00:02:44;;;;;;;2.67;0.77;;;21.20;41.90;;;;;;5004334;28;20371;-60
2022/04/08 00:05:10;;;;;;;1.42;0.80;;;21.20;41.90;;;;;;4994839;28;20046;-63
2022/04/08 00:07:36;;;;;;;1.60;0.60;;;21.20;41.90;;;;;;4993684;28;20431;-60
2022/04/08 00:10:03;;;;;;;2.47;0.80;;;21.20;41.90;;;;;;4996813;28;20092;-60
2022/04/08 00:12:28;;;;;;;3.72;1.02;;;21.20;41.90;;;;;;4994871;28;20082;-60
2022/04/08 00:14:54;;;;;;;2.55;0.90;;;21.20;41.90;;;;;;4993649;28;20052;-60
2022/04/08 00:17:20;;;;;;;1.98;0.60;;;21.20;41.90;;;;;;4996209;28;20125;-59
2022/04/08 00:19:45;;;;;;;2.05;0.80;;;21.10;41.80;;;;;;4995188;28;20775;-61
2022/04/08 00:22:11;;;;;;;2.00;0.82;;;21.10;41.80;;;;;;4995070;28;20125;-59
2022/04/08 00:24:36;;;;;;;2.20;0.70;;;21.10;41.80;;;;;;4995924;28;20515;-60
2022/04/08 00:27:02;;;;;;;1.98;0.68;;;21.10;41.80;;;;;;4996152;28;20493;-61
2022/04/08 00:29:27;;;;;;;1.05;0.60;;;21.10;41.90;;;;;;4994057;28;20117;-60
2022/04/08 00:31:57;;;;;;;2.67;0.85;;;21.10;41.80;;;;;;4994149;28;20108;-61
2022/04/08 00:34:27;;;;;;;1.30;0.60;;;21.10;41.80;;;;;;4995937;28;20594;-61
2022/04/08 00:36:54;;;;;;;1.17;0.60;;;21.10;41.80;;;;;;4994080;28;20081;-60
2022/04/08 00:39:21;;;;;;;1.25;0.50;;;21.00;41.80;;;;;;4996340;28;20105;-60
2022/04/08 00:41:46;;;;;;;1.45;0.63;;;21.00;41.90;;;;;;5001520;28;20050;-62
2022/04/08 00:44:12;;;;;;;2.47;0.90;;;21.00;42.60;;;;;;4994966;28;20073;-61
2022/04/08 00:46:38;;;;;;;2.17;0.70;;;21.00;41.80;;;;;;4993470;28;20428;-62
2022/04/08 00:49:04;;;;;;;1.27;0.50;;;21.00;41.90;;;;;;5001013;28;20506;-60
2022/04/08 00:51:34;;;;;;;1.20;0.60;;;21.00;41.70;;;;;;4996518;28;20053;-60
2022/04/08 00:54:00;;;;;;;2.00;0.50;;;21.00;41.60;;;;;;4994685;28;20083;-61
2022/04/08 00:56:30;;;;;;;1.27;0.60;;;20.90;41.60;;;;;;4995063;28;20081;-59
2022/04/08 00:58:57;;;;;;;2.03;0.75;;;20.90;41.60;;;;;;4993849;28;20088;-64
2022/04/08 01:01:24;;;;;;;0.95;0.50;;;20.90;41.70;;;;;;4992411;28;20050;-61
2022/04/08 01:03:52;;;;;;;0.95;0.50;;;20.90;41.70;;;;;;4995526;28;20117;-60
2022/04/08 01:06:21;;;;;;;0.60;0.40;;;20.90;41.80;;;;;;4993260;28;20108;-59
2022/04/08 01:08:49;;;;;;;1.42;0.70;;;20.90;41.70;;;;;;4991439;28;20136;-60
2022/04/08 01:11:15;;;;;;;1.75;0.50;;;20.90;41.70;;;;;;4995057;28;20046;-61
2022/04/08 01:13:41;;;;;;;1.67;0.50;;;20.90;41.70;;;;;;4993867;28;20037;-59
2022/04/08 01:16:07;;;;;;;1.27;0.57;;;20.80;41.60;;;;;;4994001;28;20057;-64
2022/04/08 01:18:33;;;;;;;1.20;0.57;;;20.80;41.60;;;;;;4995288;28;20046;-64
2022/04/08 01:21:03;;;;;;;1.95;0.77;;;20.80;41.70;;;;;;4993586;28;20398;-59
2022/04/08 01:23:31;;;;;;;1.48;0.50;;;20.80;41.70;;;;;;4998526;28;20049;-60
2022/04/08 01:25:57;;;;;;;1.42;0.50;;;20.90;42.40;;;;;;4993736;28;20073;-59
2022/04/08 01:28:25;;;;;;;0.60;0.20;;;20.80;41.70;;;;;;4996885;28;20049;-61
2022/04/08 01:30:51;;;;;;;1.35;0.50;;;20.80;41.60;;;;;;4993686;28;20100;-61
2022/04/08 01:33:17;;;;;;;0.93;0.40;;;20.80;41.60;;;;;;4991653;28;20057;-60
2022/04/08 01:35:42;;;;;;;1.05;0.50;;;20.80;41.60;;;;;;4995556;28;20049;-59
2022/04/08 01:38:09;;;;;;;1.17;0.47;;;20.80;41.60;;;;;;4994276;28;20053;-60
2022/04/08 01:40:35;;;;;;;1.35;0.60;;;20.70;41.50;;;;;;4992633;28;20046;-60
2022/04/08 01:43:00;;;;;;;1.42;0.55;;;20.70;41.60;;;;;;4990245;28;20401;-62
2022/04/08 01:45:26;;;;;;;1.33;0.40;;;20.70;41.60;;;;;;4994854;28;20446;-60
2022/04/08 01:47:51;;;;;;;1.70;0.60;;;20.70;41.60;;;;;;4992205;28;20050;-60
2022/04/08 01:50:19;;;;;;;1.27;0.50;;;20.70;41.50;;;;;;4993624;28;20397;-60
2022/04/08 01:52:45;;;;;;;1.45;0.47;;;20.70;41.50;;;;;;4991960;28;20053;-60
2022/04/08 01:55:10;;;;;;;1.63;0.60;;;20.70;41.60;;;;;;4995412;28;20050;-60
2022/04/08 01:57:36;;;;;;;1.15;0.50;;;20.70;41.60;;;;;;4993506;28;20038;-61
2022/04/08 02:00:04;;;;;;;1.40;0.43;;;20.70;41.60;;;;;;4993042;28;20076;-60
2022/04/08 02:02:29;;;;;;;1.15;0.60;;;20.70;41.60;;;;;;4985884;28;20466;-60
2022/04/08 02:04:55;;;;;;;1.67;0.60;;;20.70;41.70;;;;;;4988245;28;20045;-60
2022/04/08 02:07:20;;;;;;;0.85;0.40;;;20.60;41.60;;;;;;4996086;28;20050;-62
2022/04/08 02:09:46;;;;;;;1.25;0.50;;;20.60;41.60;;;;;;4989304;28;20510;-60
2022/04/08 02:12:12;;;;;;;1.67;0.50;;;20.60;41.60;;;;;;4988517;28;20050;-59
2022/04/08 02:14:38;;;;;;;0.63;0.40;;;20.60;41.60;;;;;;4989778;28;20068;-60
2022/04/08 02:17:04;;;;;;;1.05;0.47;;;20.60;41.60;;;;;;4994779;28;20119;-61
2022/04/08 02:19:29;;;;;;;2.22;0.57;;;20.60;41.60;;;;;;4993247;28;20616;-59
2022/04/08 02:21:55;;;;;;;1.10;0.52;;;20.60;41.60;;;;;;4987308;28;20040;-62
2022/04/08 02:24:21;;;;;;;1.17;0.43;;;20.60;41.60;;;;;;4995474;28;20084;-60
2022/04/08 02:26:46;;;;;;;2.08;0.57;;;20.50;41.50;;;;;;4993744;28;20406;-60
2022/04/08 02:29:12;;;;;;;1.58;0.60;;;20.50;41.50;;;;;;4992016;28;20486;-59
2022/04/08 02:31:38;;;;;;;2.05;0.57;;;20.50;41.50;;;;;;4979273;28;20478;-60
2022/04/08 02:34:04;;;;;;;1.10;0.43;;;20.50;41.60;;;;;;4990783;28;20047;-60
2022/04/08 02:36:29;;;;;;;1.92;0.60;;;20.50;41.60;;;;;;4998119;28;20042;-60
2022/04/08 02:38:55;;;;;;;2.22;0.80;;;20.50;41.70;;;;;;4992966;28;20045;-61
2022/04/08 02:41:20;;;;;;;1.38;0.63;;;20.50;41.60;;;;;;4997696;28;20050;-61
2022/04/08 02:43:46;;;;;;;0.90;0.50;;;20.50;41.60;;;;;;4996072;28;20140;-59
2022/04/08 02:46:13;;;;;;;0.77;0.40;;;20.50;41.70;;;;;;4994248;28;20054;-61
2022/04/08 02:48:38;;;;;;;1.35;0.60;;;20.50;41.70;;;;;;4997577;28;20090;-60
2022/04/08 02:51:04;;;;;;;1.77;0.60;;;20.50;41.70;;;;;;4996535;28;20085;-59
2022/04/08 02:53:29;;;;;;;2.15;0.70;;;20.50;41.60;;;;;;4994465;28;20161;-61
2022/04/08 02:55:55;;;;;;;1.73;0.50;;;20.50;41.50;;;;;;4996321;28;20060;-60
2022/04/08 02:58:20;;;;;;;2.55;0.57;;;20.50;41.50;;;;;;4992822;28;20046;-60
2022/04/08 03:00:46;;;;;;;1.77;0.52;;;20.40;41.50;;;;;;4994916;28;20045;-60
2022/04/08 03:03:11;;;;;;;2.35;0.60;;;20.40;41.60;;;;;;4994334;28;20054;-61
2022/04/08 03:05:37;;;;;;;1.92;0.90;;;20.40;41.50;;;;;;4997338;28;20050;-62
2022/04/08 03:08:03;;;;;;;2.45;0.47;;;20.40;41.60;;;;;;4995041;28;20038;-59
2022/04/08 03:10:28;;;;;;;1.13;0.60;;;20.40;41.50;;;;;;4997697;28;20049;-60
2022/04/08 03:12:54;;;;;;;1.58;0.57;;;20.40;41.50;;;;;;4994698;28;20104;-61
2022/04/08 03:15:19;;;;;;;2.17;0.68;;;20.40;41.50;;;;;;4995323;28;20049;-61
2022/04/08 03:17:45;;;;;;;1.27;0.50;;;20.40;41.50;;;;;;4995110;28;20540;-60
2022/04/08 03:20:11;;;;;;;1.17;0.55;;;20.40;41.50;;;;;;4997019;28;20511;-64
2022/04/08 03:22:37;;;;;;;2.00;0.50;;;20.40;41.50;;;;;;4998275;28;20050;-64
2022/04/08 03:25:02;;;;;;;2.58;0.70;;;20.40;41.50;;;;;;4994391;28;20065;-65
2022/04/08 03:27:28;;;;;;;0.77;0.32;;;20.40;41.50;;;;;;4996109;28;20599;-60
2022/04/08 03:29:54;;;;;;;1.45;0.50;;;20.40;41.50;;;;;;4995044;28;20547;-60
2022/04/08 03:32:19;;;;;;;1.95;0.65;;;20.40;41.50;;;;;;4996601;28;20096;-62
2022/04/08 03:34:45;;;;;;;1.38;0.50;;;20.30;41.40;;;;;;4995361;28;20042;-62
2022/04/08 03:37:10;;;;;;;0.85;0.45;;;20.30;41.40;;;;;;4996571;28;20053;-60
2022/04/08 03:39:37;;;;;;;0.93;0.65;;;20.30;41.40;;;;;;4997898;28;20053;-59
2022/04/08 03:42:02;;;;;;;2.35;0.82;;;20.30;41.40;;;;;;4995750;28;20045;-61
2022/04/08 03:44:28;;;;;;;1.05;0.60;;;20.30;41.40;;;;;;4994798;28;20058;-60
2022/04/08 03:46:53;;;;;;;1.85;0.57;;;20.30;41.40;;;;;;4996182;28;20060;-60
2022/04/08 03:49:21;;;;;;;2.53;0.70;;;20.30;41.30;;;;;;4992752;28;20054;-60
2022/04/08 03:51:47;;;;;;;1.48;0.80;;;20.30;41.30;;;;;;4994618;28;20044;-61
2022/04/08 03:54:13;;;;;;;2.70;0.90;;;20.30;41.30;;;;;;4996983;28;20049;-62
2022/04/08 03:56:43;;;;;;;1.83;0.95;;;20.30;41.30;;;;;;4996782;28;20045;-61
2022/04/08 03:59:09;;;;;;;3.07;0.80;;;20.20;41.30;;;;;;4998961;28;20057;-61
2022/04/08 04:01:36;;;;;;;1.17;0.55;;;20.20;41.20;;;;;;4988831;28;20104;-59
2022/04/08 04:04:03;;;;;;;2.13;0.80;;;20.30;41.30;;;;;;4996307;28;20153;-60
2022/04/08 04:06:29;;;;;;;1.17;0.50;;;20.20;41.30;;;;;;4992317;28;20276;-63
2022/04/08 04:08:55;;;;;;;2.00;0.68;;;20.20;41.40;;;;;;4979814;28;20077;-60
2022/04/08 04:11:20;;;;;;;2.90;0.63;;;20.20;41.40;;;;;;4995780;28;20046;-59
2022/04/08 04:13:46;;;;;;;1.95;0.60;;;20.20;41.50;;;;;;4995932;28;20173;-59
2022/04/08 04:16:12;;;;;;;2.38;0.70;;;20.20;41.70;;;;;;4991781;28;20052;-60
2022/04/08 04:18:38;;;;;;;1.65;0.68;;;20.20;41.70;;;;;;4995414;28;20084;-61
2022/04/08 04:21:04;;;;;;;1.75;0.60;;;20.10;41.70;;;;;;4990698;28;20584;-60
2022/04/08 04:23:31;;;;;;;2.67;0.82;;;20.10;41.80;;;;;;4996481;28;20365;-60
2022/04/08 04:25:57;;;;;;;2.05;0.73;;;20.10;41.90;;;;;;4993556;28;20378;-60
2022/04/08 04:28:22;;;;;;;3.03;0.98;;;20.10;42.00;;;;;;4994571;28;20129;-62
2022/04/08 04:30:49;;;;;;;1.48;0.60;;;20.10;42.00;;;;;;4994774;28;20304;-60
2022/04/08 04:33:14;;;;;;;1.60;0.63;;;20.00;42.00;;;;;;4996411;28;20037;-60
2022/04/08 04:35:40;;;;;;;3.20;0.88;;;20.10;42.00;;;;;;4992852;28;20049;-60
2022/04/08 04:38:05;;;;;;;3.40;0.85;;;20.10;42.10;;;;;;4994493;28;20053;-60
2022/04/08 04:40:31;;;;;;;2.28;0.77;;;20.10;42.10;;;;;;4992407;28;20042;-59
2022/04/08 04:42:57;;;;;;;2.72;0.80;;;20.00;42.20;;;;;;4991245;28;20053;-59
2022/04/08 04:45:24;;;;;;;3.40;0.90;;;20.10;42.30;;;;;;4991814;28;20054;-61
2022/04/08 04:47:49;;;;;;;1.75;0.80;;;20.00;42.30;;;;;;4997331;28;20086;-59
2022/04/08 04:50:15;;;;;;;4.07;0.75;;;20.00;42.40;;;;;;4993807;28;20131;-60
2022/04/08 04:52:41;;;;;;;1.88;0.68;;;20.00;42.40;;;;;;4994664;28;20392;-60
2022/04/08 04:55:07;;;;;;;2.47;0.63;;;20.00;42.40;;;;;;4992064;28;20046;-60
2022/04/08 04:57:34;;;;;;;1.27;0.50;;;20.00;42.50;;;;;;4996891;28;20045;-60
2022/04/08 04:59:59;;;;;;;3.05;0.77;;;20.00;42.50;;;;;;4997171;28;20078;-60
2022/04/08 05:02:25;;;;;;;2.60;0.52;;;20.00;42.60;;;;;;4993986;28;20050;-60
2022/04/08 05:04:51;;;;;;;2.05;0.80;;;20.00;42.70;;;;;;4993711;28;20050;-60
2022/04/08 05:07:16;;;;;;;1.10;0.52;;;20.00;42.70;;;;;;4994235;28;20112;-59
2022/04/08 05:09:42;;;;;;;2.13;0.57;;;20.00;42.70;;;;;;4994262;28;20568;-61
2022/04/08 05:12:08;;;;;;;1.38;0.65;;;20.00;42.70;;;;;;4994209;28;20064;-62
2022/04/08 05:14:34;;;;;;;2.33;0.60;;;20.00;42.70;;;;;;4993559;28;20053;-59
2022/04/08 05:17:00;;;;;;;2.20;0.80;;;20.00;42.70;;;;;;4993264;28;20490;-60
2022/04/08 05:19:25;;;;;;;1.65;0.70;;;20.00;42.80;;;;;;4994006;28;20049;-60
2022/04/08 05:21:52;;;;;;;2.22;0.75;;;20.00;42.80;;;;;;4993522;28;20046;-61
2022/04/08 05:24:18;;;;;;;1.50;0.60;;;20.00;42.80;;;;;;4994279;28;20112;-63
2022/04/08 05:26:44;;;;;;;1.45;0.60;;;20.00;42.80;;;;;;4994520;28;20050;-60
2022/04/08 05:29:10;;;;;;;1.90;0.70;;;20.00;42.80;;;;;;4993258;28;20042;-60
2022/04/08 05:31:35;;;;;;;2.00;0.57;;;20.00;42.80;;;;;;4994280;28;20452;-60
2022/04/08 05:34:01;;;;;;;2.92;1.13;;;20.10;42.80;;;;;;4991979;28;20592;-60
2022/04/08 05:36:26;;;;;;;1.80;0.70;;;20.10;42.90;;;;;;4994184;28;20071;-60
2022/04/08 05:38:52;;;;;;;2.60;0.65;;;20.10;42.90;;;;;;4994188;28;20043;-63
2022/04/08 05:41:18;;;;;;;3.67;0.85;;;20.10;42.90;;;;;;4988369;28;20050;-62
2022/04/08 05:43:45;;;;;;;2.42;0.60;;;20.10;43.00;;;;;;4993656;28;20495;-60
2022/04/08 05:46:11;;;;;;;1.73;0.60;;;20.10;43.00;;;;;;4994962;28;20054;-60
2022/04/08 05:48:37;;;;;;;1.45;0.47;;;20.10;43.00;;;;;;4993537;28;20061;-60
2022/04/08 05:51:03;;;;;;;2.05;0.63;;;20.10;43.10;;;;;;4991418;28;20149;-61
2022/04/08 05:53:29;;;;;;;2.35;0.55;;;20.10;43.10;;;;;;4992833;28;20080;-60
2022/04/08 05:55:56;;;;;;;1.27;0.45;;;20.10;43.00;;;;;;4992700;28;20485;-62
2022/04/08 05:58:21;;;;;;;2.50;0.65;;;20.20;43.00;;;;;;4993174;28;20497;-61
2022/04/08 06:00:47;;;;;;;2.67;0.70;;;20.10;43.00;;;;;;4992155;28;20042;-59
2022/04/08 06:03:13;;;;;;;1.67;0.60;;;20.20;43.10;;;;;;4995321;28;20038;-61
2022/04/08 06:05:39;;;;;;;1.75;0.45;;;20.20;43.10;;;;;;4996429;28;20129;-61
2022/04/08 06:08:05;;;;;;;2.72;0.80;;;20.10;42.90;;;;;;4990367;28;20483;-61
2022/04/08 06:10:30;;;;;;;2.75;0.60;;;20.20;43.00;;;;;;4974102;28;20049;-62
2022/04/08 06:12:56;;;;;;;4.40;0.80;;;20.20;43.10;;;;;;4985244;28;20058;-60
2022/04/08 06:15:23;;;;;;;3.55;0.60;;;20.20;43.00;;;;;;4974363;28;20057;-60
2022/04/08 06:17:49;;;;;;;1.45;0.50;;;20.20;43.00;;;;;;4990916;28;20065;-60
2022/04/08 06:20:17;;;;;;;0.93;0.50;;;20.20;43.00;;;;;;4991034;28;20142;-64
2022/04/08 06:22:43;;;;;;;1.00;0.50;;;20.20;42.90;;;;;;4990652;28;20042;-60
2022/04/08 06:25:12;;;;;;;2.83;0.80;;;20.20;42.80;;;;;;4993352;28;20120;-60
2022/04/08 06:27:38;;;;;;;1.20;0.50;;;20.20;42.80;;;;;;4990323;28;20319;-60
2022/04/08 06:30:09;;;;;;;0.88;0.50;;;20.20;43.60;;;;;;4993637;28;20049;-61
2022/04/08 06:32:36;;;;;;;1.50;0.40;;;20.20;42.80;;;;;;4991693;28;20046;-60
2022/04/08 06:35:02;;;;;;;1.45;0.60;;;20.20;42.90;;;;;;4990058;28;20048;-65
2022/04/08 06:37:28;;;;;;;0.63;0.40;;;20.20;43.00;;;;;;4976513;28;20133;-61
2022/04/08 06:39:55;;;;;;;2.80;0.50;;;20.20;43.00;;;;;;4973992;28;20068;-61
2022/04/08 06:42:21;;;;;;;3.38;0.50;;;20.20;43.00;;;;;;4973636;28;20054;-61
2022/04/08 06:44:47;;;;;;;3.45;0.50;;;20.20;43.00;;;;;;4989614;28;20120;-63
2022/04/08 06:47:13;;;;;;;1.00;0.40;;;20.30;43.00;;;;;;4989606;28;20054;-63
2022/04/08 06:49:43;;;;;;;1.30;0.52;;;20.30;42.90;;;;;;4991468;28;20054;-62
2022/04/08 06:52:09;;;;;;;0.98;0.50;;;20.30;43.60;;;;;;4989671;28;20088;-62
2022/04/08 06:54:35;;;;;;;1.63;0.45;;;20.30;42.90;;;;;;4993192;28;20365;-61
2022/04/08 06:57:01;;;;;;;0.60;0.50;;;20.30;42.90;;;;;;4992036;28;20818;-63
2022/04/08 06:59:26;;;;;;;1.02;0.47;;;20.30;42.90;;;;;;4976095;28;20045;-62
2022/04/08 07:01:52;;;;;;;1.35;0.40;;;20.30;42.90;;;;;;4992030;28;20568;-61
2022/04/08 07:04:17;;;;;;;1.88;0.43;;;20.40;42.90;;;;;;4997847;28;20042;-62
2022/04/08 07:06:43;;;;;;;0.77;0.40;;;20.40;42.90;;;;;;4989323;28;20494;-61
2022/04/08 07:09:08;;;;;;;1.15;0.30;;;20.40;42.90;;;;;;4993371;28;20085;-64
2022/04/08 07:11:35;;;;;;;1.13;0.50;;;20.40;43.00;;;;;;4991995;28;20046;-62
2022/04/08 07:14:01;;;;;;;1.63;0.38;;;20.40;43.00;;;;;;4990494;28;20109;-62
2022/04/08 07:16:27;;;;;;;0.93;0.40;;;20.40;42.90;;;;;;4988050;28;20053;-60
2022/04/08 07:18:53;;;;;;;1.90;0.52;;;20.40;42.90;;;;;;4989788;28;20049;-63
2022/04/08 07:21:18;;;;;;;0.63;0.47;;;20.40;43.00;;;;;;4990116;28;20540;-62
2022/04/08 07:23:44;;;;;;;1.15;0.50;;;20.50;43.00;;;;;;4993369;28;20480;-62
2022/04/08 07:26:10;;;;;;;1.27;0.60;;;20.50;43.00;;;;;;4993969;28;20046;-63
2022/04/08 07:28:35;;;;;;;0.77;0.40;;;20.50;43.00;;;;;;4994223;28;20454;-61
2022/04/08 07:31:01;;;;;;;0.65;0.40;;;20.50;43.00;;;;;;4994466;28;20554;-60
2022/04/08 07:33:26;;;;;;;0.63;0.50;;;20.50;43.00;;;;;;4984745;28;20399;-63
2022/04/08 07:35:52;;;;;;;0.70;0.30;;;20.50;43.00;;;;;;4992695;28;20042;-64
2022/04/08 07:38:18;;;;;;;0.52;0.50;;;20.50;42.90;;;;;;4978041;28;20532;-62
2022/04/08 07:40:44;;;;;;;0.43;0.40;;;20.50;42.90;;;;;;4994922;28;20132;-64
2022/04/08 07:43:09;;;;;;;1.33;0.40;;;20.50;42.90;;;;;;4995809;28;20060;-63
2022/04/08 07:45:36;;;;;;;1.90;0.50;;;20.50;42.90;;;;;;4995902;28;20034;-59
2022/04/08 07:48:02;;;;;;;1.58;0.38;;;20.60;43.00;;;;;;4994190;28;20502;-60
2022/04/08 07:50:28;;;;;;;1.15;0.52;;;20.60;43.00;;;;;;4996284;28;20053;-65
2022/04/08 07:52:54;;;;;;;0.75;0.40;;;20.60;43.00;;;;;;4993346;28;20394;-61
2022/04/08 07:55:20;;;;;;;2.25;0.50;;;20.60;43.00;;;;;;4997129;28;20045;-62
2022/04/08 07:57:48;;;;;;;1.92;0.43;;;20.60;43.00;;;;;;4981546;28;20478;-60
2022/04/08 08:00:16;;;;;;;1.67;0.50;;;20.60;43.00;;;;;;4993375;28;20430;-61
2022/04/08 08:02:43;;;;;;;1.40;0.50;;;20.60;43.10;;;;;;4994362;28;20038;-64
2022/04/08 08:05:09;;;;;;;2.92;0.88;;;20.70;43.20;;;;;;4991713;28;20414;-65
2022/04/08 08:07:48;;;;;;;1.70;0.60;;;20.70;43.30;;;;;;4979158;28;20087;-63
2022/04/08 08:10:21;;;;;;;7.60;0.70;;;20.70;43.40;;;;;;4993887;28;20057;-61
2022/04/08 08:12:47;;;;;;;1.35;0.40;;;20.70;43.40;;;;;;4991493;28;20054;-60
2022/04/08 08:15:13;;;;;;;0.50;0.50;;;20.70;43.40;;;;;;4995676;28;20060;-65
2022/04/08 08:17:39;;;;;;;1.15;0.40;;;20.70;43.40;;;;;;4993631;28;20073;-61
2022/04/08 08:20:07;;;;;;;1.58;0.47;;;20.70;43.40;;;;;;4997491;28;20085;-64
2022/04/08 08:22:33;;;;;;;2.63;0.68;;;20.70;43.40;;;;;;4994410;28;20057;-64
2022/04/08 08:24:59;;;;;;;0.77;0.43;;;20.70;43.30;;;;;;4994978;28;20077;-62
2022/04/08 08:27:24;;;;;;;1.25;0.60;;;20.70;43.30;;;;;;4993055;28;20146;-62
2022/04/08 08:29:50;;;;;;;0.50;0.50;;;20.80;43.40;;;;;;4994855;28;20076;-62
2022/04/08 08:32:16;;;;;;;2.38;0.70;;;20.80;43.30;;;;;;4992364;28;20152;-61
2022/04/08 08:34:42;;;;;;;1.95;0.63;;;20.80;43.30;;;;;;4978565;28;20058;-62
2022/04/08 08:37:08;;;;;;;1.30;0.60;;;20.80;43.30;;;;;;4995535;28;20076;-62
2022/04/08 08:39:33;;;;;;;0.65;0.50;;;20.80;43.30;;;;;;4996834;28;20085;-61
2022/04/08 08:41:59;;;;;;;0.47;0.38;;;20.80;43.30;;;;;;4992879;28;20088;-62
2022/04/08 08:44:25;;;;;;;2.05;0.70;;;20.80;43.30;;;;;;4991940;28;20066;-63
2022/04/08 08:46:52;;;;;;;1.35;0.40;;;20.80;43.30;;;;;;4988566;28;20164;-61
2022/04/08 08:49:19;;;;;;;2.05;0.70;;;20.80;43.30;;;;;;4977593;28;20045;-63
2022/04/08 08:51:55;;;;;;;2.30;0.70;;;20.80;43.30;;;;;;4984424;28;20057;-61
2022/04/08 08:54:20;;;;;;;1.05;0.50;;;20.80;43.30;;;;;;4993196;28;20053;-60
2022/04/08 08:56:46;;;;;;;1.95;0.60;;;20.80;43.30;;;;;;4992708;28;20054;-61
2022/04/08 08:59:12;;;;;;;0.77;0.47;;;20.80;43.20;;;;;;4994965;28;20038;-61
2022/04/08 09:01:37;;;;;;;1.73;0.60;;;20.90;43.30;;;;;;4994253;28;20079;-60
2022/04/08 09:04:03;;;;;;;1.35;0.40;;;20.80;44.00;;;;;;4994339;28;20143;-63
2022/04/08 09:06:40;;;;;;;1.65;0.70;;;20.90;43.40;;;;;;4997133;28;20152;-61
2022/04/08 09:09:06;;;;;;;1.42;0.68;;;20.90;43.40;;;;;;4979255;28;20041;-60
2022/04/08 09:11:31;;;;;;;1.98;0.73;;;20.90;43.40;;;;;;4992637;28;20069;-63
2022/04/08 09:14:05;;;;;;;0.93;0.50;;;20.90;43.30;;;;;;4993723;28;20616;-61
2022/04/08 09:16:36;;;;;;;4.18;0.70;;;20.90;43.30;;;;;;4995846;28;20087;-62
2022/04/08 09:19:13;;;;;;;1.08;0.50;;;20.90;43.30;;;;;;4991936;28;20097;-63
2022/04/08 09:21:53;;;;;;;0.60;0.40;;;20.90;43.40;;;;;;4998844;28;20049;-65
2022/04/08 09:24:23;;;;;;;1.17;0.60;;;20.90;43.30;;;;;;4993990;28;20045;-62
2022/04/08 09:26:52;;;;;;;2.33;0.60;;;20.90;43.30;;;;;;4994213;28;20049;-62
2022/04/08 09:29:24;;;;;;;2.03;0.47;;;21.00;43.30;;;;;;4993215;28;20107;-63
2022/04/08 09:31:51;;;;;;;2.10;0.80;;;21.00;43.30;;;;;;4989142;28;20053;-62
2022/04/08 09:34:19;;;;;;;1.25;0.40;;;21.00;43.30;;;;;;4992363;28;20054;-65
2022/04/08 09:36:45;;;;;;;1.60;0.50;;;21.00;43.30;;;;;;4993817;28;20066;-64
2022/04/08 09:39:11;;;;;;;2.25;0.60;;;21.00;43.20;;;;;;4991525;28;20504;-65
2022/04/08 09:41:42;;;;;;;2.33;0.65;;;21.00;43.20;;;;;;4984241;28;20053;-61
2022/04/08 09:44:09;;;;;;;1.20;0.65;;;21.00;43.10;;;;;;4992658;28;20148;-60
2022/04/08 09:46:36;;;;;;;1.15;0.60;;;21.00;43.00;;;;;;4993810;28;20058;-62
2022/04/08 09:49:06;;;;;;;2.60;0.82;;;21.00;43.00;;;;;;4992716;28;20065;-64
2022/04/08 09:51:39;;;;;;;2.27;0.60;;;21.00;42.90;;;;;;4991184;28;20060;-62
2022/04/08 09:54:20;;;;;;;1.95;0.80;;;21.00;42.80;;;;;;4993447;28;20056;-62
2022/04/08 09:56:46;;;;;;;;;;;21.00;42.70;;;;;;4994075;28;20462;-64
2022/04/08 09:59:14;;;;;;;1.63;0.65;;;21.00;42.70;;;;;;4993261;28;20052;-62
2022/04/08 10:01:43;;;;;;;1.38;0.60;;;21.00;42.80;;;;;;4979132;28;20120;-61
2022/04/08 10:04:10;;;;;;;3.60;0.90;;;21.00;42.70;;;;;;4988302;28;20054;-64
2022/04/08 10:06:36;;;;;;;1.52;0.85;;;21.00;42.80;;;;;;4972482;28;20038;-62
2022/04/08 10:09:04;;;;;;;3.05;0.90;;;21.00;43.30;;;;;;4992339;28;20045;-64
2022/04/08 10:11:59;;;;;;;1.67;0.68;;;21.00;42.50;;;;;;4989933;28;20445;-61
2022/04/08 10:14:42;;;;;;;2.80;0.73;;;21.00;42.40;;;;;;4988595;28;20042;-61
2022/04/08 10:17:09;;;;;;;3.92;0.75;;;21.10;42.50;;;;;;4991870;28;20050;-62
2022/04/08 10:19:35;;;;;;;1.45;0.60;;;21.10;42.50;;;;;;4989068;28;20385;-65
2022/04/08 10:22:00;;;;;;;2.03;0.57;;;21.10;42.40;;;;;;4989727;28;20046;-62
2022/04/08 10:24:30;;;;;;;3.25;1.10;;;21.10;42.30;;;;;;4986947;28;20151;-64
2022/04/08 10:26:56;;;;;;;3.47;0.97;;;21.10;42.30;;;;;;4991614;28;20081;-63
2022/04/08 10:29:22;;;;;;;2.20;0.70;;;21.10;42.30;;;;;;4989284;28;20043;-62
2022/04/08 10:31:58;;;;;;;2.45;0.80;;;21.10;42.30;;;;;;4990435;28;20052;-62
2022/04/08 10:34:25;;;;;;;1.25;0.80;;;21.10;42.20;;;;;;4991360;28;20046;-66
2022/04/08 10:36:52;;;;;;;4.40;0.93;;;21.10;42.20;;;;;;4991668;28;20095;-62
2022/04/08 10:39:22;;;;;;;1.95;0.55;;;21.10;42.10;;;;;;4992202;28;20498;-62
2022/04/08 10:41:57;;;;;;;2.30;0.75;;;21.10;42.10;;;;;;4991622;28;20061;-62
2022/04/08 10:44:31;;;;;;;2.08;0.90;;;21.10;42.20;;;;;;4991632;28;20466;-62
2022/04/08 10:46:58;;;;;;;2.85;0.88;;;21.10;42.30;;;;;;4992254;28;21651;-63
2022/04/08 10:49:24;;;;;;;2.08;0.75;;;21.10;42.30;;;;;;4992220;28;20046;-61
2022/04/08 10:51:50;;;;;;;2.47;0.93;;;21.00;42.10;;;;;;4991972;28;20042;-59
2022/04/08 10:54:16;;;;;;;2.28;0.63;;;21.10;42.10;;;;;;4991619;28;20504;-60
2022/04/08 10:56:43;;;;;;;3.35;0.75;;;21.10;42.00;;;;;;4994937;28;20041;-63
2022/04/08 10:59:09;;;;;;;3.17;0.90;;;21.10;42.00;;;;;;4995558;28;20089;-59
2022/04/08 11:01:48;;;;;;;2.92;0.80;;;21.00;42.70;;;;;;4997621;28;20863;-60
2022/04/08 11:04:18;;;;;;;1.52;0.70;;;21.00;42.00;;;;;;4993765;28;20073;-62
2022/04/08 11:06:45;;;;;;;7.30;1.20;;;21.00;42.20;;;;;;4997957;28;20104;-61
2022/04/08 11:09:14;;;;;;;4.25;1.48;;;21.00;42.70;;;;;;4996545;28;20042;-60
2022/04/08 11:11:41;;;;;;;8.52;1.40;;;21.10;43.70;;;;;;4996415;28;20156;-62
2022/04/08 11:14:08;;;;;;;2.95;1.10;;;21.10;44.70;;;;;;4993481;28;20597;-63
2022/04/08 11:16:37;;;;;;;3.10;1.10;;;21.10;45.30;;;;;;4996075;28;20067;-64
2022/04/08 11:19:11;;;;;;;3.90;1.45;;;21.10;46.10;;;;;;4997408;28;20043;-63
2022/04/08 11:21:41;;;;;;;3.03;1.08;;;21.10;46.30;;;;;;4998276;28;20985;-62
2022/04/08 11:24:13;;;;;;;2.97;1.00;;;21.10;46.30;;;;;;5002983;28;20054;-62
2022/04/08 11:26:50;;;;;;;2.85;0.90;;;21.10;46.20;;;;;;4997632;28;20053;-61
2022/04/08 11:29:18;;;;;;;2.17;0.98;;;21.10;46.00;;;;;;4977655;28;20042;-62
2022/04/08 11:31:45;;;;;;;2.97;0.65;;;21.10;45.80;;;;;;4998338;28;20533;-60
2022/04/08 11:34:13;;;;;;;5.13;0.90;;;21.10;45.70;;;;;;4995222;28;20378;-60
2022/04/08 11:36:39;;;;;;;2.75;0.85;;;21.20;45.60;;;;;;4997674;28;20050;-63
2022/04/08 11:39:05;;;;;;;4.68;0.85;;;21.20;45.60;;;;;;4996437;28;20596;-65
2022/04/08 11:41:31;;;;;;;3.17;0.95;;;21.20;45.50;;;;;;4993256;28;20105;-62
2022/04/08 11:43:57;;;;;;;1.50;0.88;;;21.20;45.40;;;;;;4994213;28;20057;-61
2022/04/08 11:46:22;;;;;;;4.28;0.93;;;21.20;45.30;;;;;;4995163;28;20049;-61
2022/04/08 11:48:49;;;;;;;3.45;1.00;;;21.10;45.00;;;;;;4994457;28;20050;-60
2022/04/08 11:51:19;;;;;;;3.55;1.00;;;21.10;44.90;;;;;;4995795;28;20160;-61
2022/04/08 11:53:53;;;;;;;3.33;1.38;;;21.10;44.60;;;;;;4994414;28;20402;-65
2022/04/08 11:56:26;;;;;;;3.08;1.00;;;21.10;44.50;;;;;;4995433;28;20038;-62
2022/04/08 11:59:11;;;;;;;1.92;0.90;;;21.10;44.40;;;;;;4994107;28;20383;-61
2022/04/08 12:01:41;;;;;;;4.93;0.90;;;21.10;44.30;;;;;;4997950;28;20037;-62
2022/04/08 12:04:11;;;;;;;3.42;1.10;;;21.10;44.40;;;;;;4996804;28;20046;-60
2022/04/08 12:06:42;;;;;;;3.20;0.90;;;21.10;44.30;;;;;;4996388;28;20050;-61
2022/04/08 12:09:08;;;;;;;;;;;21.20;44.30;;;;;;4994890;28;20089;-62
2022/04/08 12:11:36;;;;;;;5.07;1.20;;;21.20;44.00;;;;;;4995339;28;19976;-63
2022/04/08 12:14:04;;;;;;;1.92;0.98;;;21.20;44.10;;;;;;4997303;28;20092;-63
2022/04/08 12:16:31;;;;;;;2.55;0.90;;;21.20;44.00;;;;;;4994163;28;20057;-62
2022/04/08 12:18:57;;;;;;;2.53;0.95;;;21.30;43.90;;;;;;4993564;28;20054;-61
2022/04/08 12:21:24;;;;;;;3.95;0.93;;;21.30;43.90;;;;;;4996945;28;20038;-63
2022/04/08 12:23:50;;;;;;;3.25;1.02;;;21.30;43.90;;;;;;4978965;28;20050;-62
2022/04/08 12:26:18;;;;;;;2.63;0.85;;;21.20;43.70;;;;;;4993357;28;20545;-60
2022/04/08 12:28:44;;;;;;;2.72;0.93;;;21.20;43.70;;;;;;4993983;28;20041;-61
2022/04/08 12:31:14;;;;;;;2.85;0.95;;;21.20;43.60;;;;;;4993615;28;20455;-62
2022/04/08 12:33:44;;;;;;;3.00;0.90;;;21.20;43.50;;;;;;4979209;28;20151;-60
2022/04/08 12:36:11;;;;;;;1.52;1.00;;;21.20;43.40;;;;;;4995509;28;20050;-64
2022/04/08 12:38:40;;;;;;;3.80;1.13;;;21.10;43.20;;;;;;4993233;28;20049;-62
2022/04/08 12:41:08;;;;;;;4.63;1.23;;;21.20;43.30;;;;;;4994791;28;20152;-61
2022/04/08 12:43:34;;;;;;;2.53;1.08;;;21.10;43.10;;;;;;4992601;28;20053;-63
2022/04/08 12:46:00;;;;;;;2.13;0.77;;;21.10;43.00;;;;;;4996594;28;20065;-61